createdAt,value
2018-06-23T00:02:37.553Z,12.40
2018-06-23T00:05:06.166Z,12.40
2018-06-23T00:07:34.694Z,12.40
2018-06-23T00:10:03.222Z,12.40
2018-06-23T00:12:31.734Z,12.40
2018-06-23T00:15:00.226Z,12.30
2018-06-23T00:17:28.790Z,12.30
2018-06-23T00:19:57.288Z,12.40
2018-06-23T00:22:25.790Z,12.30
2018-06-23T00:24:54.322Z,12.30
2018-06-23T00:27:22.866Z,12.30
2018-06-23T00:29:51.374Z,12.30
2018-06-23T00:32:19.873Z,12.30
2018-06-23T00:34:48.382Z,12.30
2018-06-23T00:37:16.854Z,12.30
2018-06-23T00:39:45.330Z,12.30
2018-06-23T00:42:13.800Z,12.30
2018-06-23T00:44:42.384Z,12.20
2018-06-23T00:47:11.389Z,12.20
2018-06-23T00:49:39.898Z,12.20
2018-06-23T00:52:08.349Z,12.20
2018-06-23T00:54:36.918Z,12.20
2018-06-23T00:57:05.394Z,12.20
2018-06-23T00:59:41.782Z,12.20
2018-06-23T01:02:10.550Z,12.20
2018-06-23T01:04:39.110Z,12.20
2018-06-23T01:07:09.382Z,12.20
2018-06-23T01:09:38.174Z,12.20
2018-06-23T01:12:07.115Z,12.10
2018-06-23T01:14:36.088Z,12.10
2018-06-23T01:17:05.146Z,12.10
2018-06-23T01:19:33.626Z,12.10
2018-06-23T01:22:02.114Z,12.10
2018-06-23T01:24:30.614Z,12.10
2018-06-23T01:26:59.132Z,12.10
2018-06-23T01:29:27.619Z,12.10
2018-06-23T01:31:56.190Z,12.00
2018-06-23T01:34:24.656Z,12.00
2018-06-23T01:36:53.398Z,12.00
2018-06-23T01:39:21.913Z,12.00
2018-06-23T01:41:50.466Z,12.00
2018-06-23T01:44:18.962Z,12.00
2018-06-23T01:46:47.534Z,12.00
2018-06-23T01:49:15.973Z,12.00
2018-06-23T01:51:44.534Z,12.00
2018-06-23T01:54:13.042Z,12.00
2018-06-23T01:56:41.594Z,12.00
2018-06-23T01:59:10.076Z,12.00
2018-06-23T02:01:38.575Z,12.00
2018-06-23T02:04:07.069Z,12.00
2018-06-23T02:06:35.588Z,12.00
2018-06-23T02:09:06.178Z,12.00
2018-06-23T02:11:34.721Z,12.00
2018-06-23T02:14:08.457Z,12.00
2018-06-23T02:18:45.149Z,12.00
2018-06-23T02:21:19.783Z,12.00
2018-06-23T02:23:53.559Z,12.00
2018-06-23T02:26:27.380Z,11.90
2018-06-23T02:29:01.120Z,11.90
2018-06-23T02:31:35.030Z,11.90
2018-06-23T02:34:08.921Z,12.00
2018-06-23T02:36:37.386Z,11.90
2018-06-23T02:39:08.141Z,12.00
2018-06-23T02:44:04.802Z,12.00
2018-06-23T02:46:33.318Z,12.00
2018-06-23T02:49:01.892Z,12.00
2018-06-23T02:51:30.439Z,12.00
2018-06-23T02:53:59.008Z,12.00
2018-06-23T02:56:27.478Z,12.00
2018-06-23T02:58:55.982Z,12.00
2018-06-23T03:03:52.638Z,12.00
2018-06-23T03:06:21.124Z,12.10
2018-06-23T03:08:49.636Z,12.10
2018-06-23T03:11:18.146Z,12.10
2018-06-23T03:13:46.695Z,12.20
2018-06-23T03:16:15.195Z,12.20
2018-06-23T03:18:43.848Z,12.20
2018-06-23T03:21:12.348Z,12.30
2018-06-23T03:23:40.848Z,12.30
2018-06-23T03:26:09.374Z,12.40
2018-06-23T03:28:37.888Z,12.40
2018-06-23T03:31:06.514Z,12.40
2018-06-23T03:33:35.011Z,12.50
2018-06-23T03:36:03.510Z,12.50
2018-06-23T03:38:32.014Z,12.60
2018-06-23T03:41:00.534Z,12.60
2018-06-23T03:43:29.037Z,12.60
2018-06-23T03:45:57.620Z,12.70
2018-06-23T03:48:26.098Z,12.70
2018-06-23T03:50:54.627Z,12.80
2018-06-23T03:53:23.150Z,12.80
2018-06-23T03:55:51.663Z,12.80
2018-06-23T03:58:20.174Z,12.70
2018-06-23T04:00:53.952Z,12.80
2018-06-23T04:03:22.578Z,12.80
2018-06-23T04:05:51.106Z,12.80
2018-06-23T04:08:19.606Z,12.80
2018-06-23T04:10:48.148Z,12.80
2018-06-23T04:13:16.614Z,12.80
2018-06-23T04:15:45.132Z,12.80
2018-06-23T04:18:13.591Z,12.90
2018-06-23T04:20:44.782Z,12.90
2018-06-23T04:23:13.254Z,13.00
2018-06-23T04:25:41.780Z,13.00
2018-06-23T04:28:10.276Z,13.00
2018-06-23T04:30:38.868Z,13.00
2018-06-23T04:33:07.358Z,13.00
2018-06-23T04:35:35.888Z,13.10
2018-06-23T04:38:04.421Z,13.10
2018-06-23T04:40:33.837Z,13.20
2018-06-23T04:43:02.312Z,13.30
2018-06-23T04:45:30.880Z,13.30
2018-06-23T04:47:59.409Z,13.30
2018-06-23T04:50:28.139Z,13.30
2018-06-23T04:52:56.623Z,13.40
2018-06-23T04:55:25.096Z,13.40
2018-06-23T04:57:53.670Z,13.40
2018-06-23T05:00:25.331Z,13.40
2018-06-23T05:02:54.853Z,13.40
2018-06-23T05:05:23.701Z,13.40
2018-06-23T05:07:52.208Z,13.40
2018-06-23T05:10:20.715Z,13.40
2018-06-23T05:12:49.495Z,13.40
2018-06-23T05:15:18.003Z,13.50
2018-06-23T05:17:46.516Z,13.50
2018-06-23T05:20:15.088Z,13.50
2018-06-23T05:22:43.626Z,13.50
2018-06-23T05:25:12.098Z,13.60
2018-06-23T05:27:40.612Z,13.60
2018-06-23T05:30:09.109Z,13.60
2018-06-23T05:32:37.608Z,13.60
2018-06-23T05:35:06.119Z,13.60
2018-06-23T05:37:34.611Z,13.60
2018-06-23T05:40:03.683Z,13.70
2018-06-23T05:42:32.204Z,13.80
2018-06-23T05:45:00.676Z,13.80
2018-06-23T05:47:29.546Z,13.90
2018-06-23T05:49:57.993Z,14.00
2018-06-23T05:52:26.511Z,14.00
2018-06-23T05:54:55.001Z,14.10
2018-06-23T05:57:23.541Z,14.10
2018-06-23T05:59:52.028Z,14.20
2018-06-23T06:02:20.559Z,14.30
2018-06-23T06:04:49.095Z,14.30
2018-06-23T06:07:17.593Z,14.40
2018-06-23T06:09:46.110Z,14.40
2018-06-23T06:12:14.641Z,14.50
2018-06-23T06:14:43.143Z,14.60
2018-06-23T06:17:21.473Z,14.60
2018-06-23T06:19:51.402Z,14.70
2018-06-23T06:22:22.507Z,14.80
2018-06-23T06:24:51.056Z,14.90
2018-06-23T06:27:19.519Z,14.90
2018-06-23T06:29:48.304Z,14.90
2018-06-23T06:32:16.872Z,15.00
2018-06-23T06:34:45.406Z,15.00
2018-06-23T06:37:13.892Z,15.00
2018-06-23T06:42:10.824Z,15.10
2018-06-23T06:44:39.401Z,15.20
2018-06-23T06:47:07.949Z,15.20
2018-06-23T06:49:36.474Z,15.30
2018-06-23T06:52:04.990Z,15.30
2018-06-23T06:54:33.498Z,15.40
2018-06-23T06:57:02.058Z,15.40
2018-06-23T06:59:30.552Z,15.50
2018-06-23T07:01:59.047Z,15.50
2018-06-23T07:04:27.507Z,15.60
2018-06-23T07:06:56.072Z,15.60
2018-06-23T07:09:24.651Z,15.60
2018-06-23T07:11:53.261Z,15.70
2018-06-23T07:14:21.849Z,15.80
2018-06-23T07:16:50.411Z,15.80
2018-06-23T07:19:18.881Z,16.00
2018-06-23T07:21:47.410Z,15.90
2018-06-23T07:24:16.051Z,16.00
2018-06-23T07:26:44.534Z,16.00
2018-06-23T07:29:13.015Z,16.00
2018-06-23T07:31:41.552Z,16.10
2018-06-23T07:34:10.071Z,16.10
2018-06-23T07:36:39.133Z,16.20
2018-06-23T07:39:09.217Z,16.30
2018-06-23T07:41:38.304Z,16.40
2018-06-23T07:44:07.404Z,16.50
2018-06-23T07:46:36.022Z,16.60
2018-06-23T07:49:04.554Z,16.60
2018-06-23T07:51:33.224Z,16.80
2018-06-23T07:54:01.761Z,16.90
2018-06-23T07:56:30.227Z,17.10
2018-06-23T07:58:58.732Z,17.10
2018-06-23T08:01:27.274Z,17.40
2018-06-23T08:03:55.832Z,17.60
2018-06-23T08:06:24.308Z,17.70
2018-06-23T08:08:52.821Z,17.60
2018-06-23T08:11:21.324Z,17.70
2018-06-23T08:13:49.855Z,17.60
2018-06-23T08:16:18.376Z,17.80
2018-06-23T08:18:46.918Z,17.80
2018-06-23T08:21:15.379Z,17.70
2018-06-23T08:23:43.899Z,17.60
2018-06-23T08:26:12.448Z,17.70
2018-06-23T08:28:40.993Z,17.60
2018-06-23T08:31:09.519Z,17.70
2018-06-23T08:33:38.051Z,17.80
2018-06-23T08:36:06.579Z,17.80
2018-06-23T08:38:35.108Z,17.70
2018-06-23T08:41:03.686Z,17.70
2018-06-23T08:43:32.297Z,17.80
2018-06-23T08:46:00.813Z,17.70
2018-06-23T08:48:29.291Z,17.70
2018-06-23T08:50:57.832Z,17.60
2018-06-23T08:53:26.305Z,17.60
2018-06-23T08:55:54.827Z,17.60
2018-06-23T08:58:23.297Z,17.50
2018-06-23T09:00:51.792Z,17.50
2018-06-23T09:03:20.289Z,17.30
2018-06-23T09:05:48.840Z,17.20
2018-06-23T09:08:17.320Z,17.20
2018-06-23T09:10:45.869Z,17.00
2018-06-23T09:13:14.351Z,17.10
2018-06-23T09:15:42.849Z,17.20
2018-06-23T09:18:11.355Z,17.10
2018-06-23T09:20:39.902Z,17.20
2018-06-23T09:23:08.367Z,17.30
2018-06-23T09:25:37.043Z,17.30
2018-06-23T09:28:05.726Z,17.30
2018-06-23T09:30:34.331Z,17.30
2018-06-23T09:33:02.860Z,17.20
2018-06-23T09:35:31.412Z,17.30
2018-06-23T09:37:59.912Z,17.20
2018-06-23T09:40:28.363Z,17.20
2018-06-23T09:42:56.893Z,17.20
2018-06-23T09:45:25.383Z,17.20
2018-06-23T09:47:53.981Z,17.20
2018-06-23T09:50:22.480Z,17.20
2018-06-23T09:52:50.991Z,17.20
2018-06-23T09:55:19.503Z,17.30
2018-06-23T09:57:48.064Z,17.40
2018-06-23T10:00:17.675Z,17.60
2018-06-23T10:02:47.651Z,17.60
2018-06-23T10:05:16.139Z,17.40
2018-06-23T10:07:44.661Z,17.30
2018-06-23T10:10:13.219Z,17.20
2018-06-23T10:12:41.721Z,17.20
2018-06-23T10:15:10.203Z,17.00
2018-06-23T10:17:38.703Z,16.90
2018-06-23T10:20:07.224Z,16.80
2018-06-23T10:22:35.735Z,16.60
2018-06-23T10:25:04.287Z,16.40
2018-06-23T10:27:32.807Z,16.40
2018-06-23T10:30:01.331Z,16.50
2018-06-23T10:32:29.889Z,16.60
2018-06-23T10:34:58.375Z,16.80
2018-06-23T10:37:27.272Z,17.30
2018-06-23T10:39:55.851Z,17.50
2018-06-23T10:42:24.287Z,17.70
2018-06-23T10:44:52.863Z,18.00
2018-06-23T10:47:21.447Z,18.20
2018-06-23T10:49:49.988Z,17.90
2018-06-23T10:52:18.488Z,17.70
2018-06-23T10:54:47.091Z,17.80
2018-06-23T10:57:15.636Z,17.70
2018-06-23T10:59:44.201Z,17.80
2018-06-23T11:02:12.702Z,17.60
2018-06-23T11:04:41.283Z,17.70
2018-06-23T11:07:09.887Z,17.70
2018-06-23T11:09:38.679Z,17.60
2018-06-23T11:12:07.201Z,17.70
2018-06-23T11:14:35.731Z,17.70
2018-06-23T11:17:04.259Z,17.80
2018-06-23T11:19:32.841Z,18.00
2018-06-23T11:22:02.068Z,18.20
2018-06-23T11:24:30.686Z,18.40
2018-06-23T11:26:59.179Z,18.40
2018-06-23T11:29:27.923Z,18.40
2018-06-23T11:31:56.439Z,18.50
2018-06-23T11:34:24.945Z,18.40
2018-06-23T11:36:53.487Z,18.40
2018-06-23T11:39:21.979Z,18.30
2018-06-23T11:41:50.547Z,18.40
2018-06-23T11:44:19.027Z,18.50
2018-06-23T11:46:47.719Z,18.40
2018-06-23T11:49:16.191Z,18.60
2018-06-23T11:51:44.693Z,18.50
2018-06-23T11:54:13.155Z,18.50
2018-06-23T11:56:41.659Z,18.40
2018-06-23T11:59:10.159Z,18.40
2018-06-23T12:01:38.719Z,18.30
2018-06-23T12:04:07.227Z,18.30
2018-06-23T12:06:35.843Z,18.30
2018-06-23T12:09:06.245Z,18.40
2018-06-23T12:11:34.763Z,18.60
2018-06-23T12:14:03.354Z,18.90
2018-06-23T12:16:32.137Z,19.20
2018-06-23T12:19:00.599Z,19.50
2018-06-23T12:21:29.105Z,19.70
2018-06-23T12:23:57.671Z,20.00
2018-06-23T12:26:26.179Z,20.10
2018-06-23T12:28:54.711Z,20.10
2018-06-23T12:31:23.213Z,19.90
2018-06-23T12:33:52.110Z,19.80
2018-06-23T12:36:20.611Z,19.80
2018-06-23T12:38:49.198Z,19.60
2018-06-23T12:41:17.667Z,19.50
2018-06-23T12:43:46.194Z,19.40
2018-06-23T12:46:14.774Z,19.20
2018-06-23T12:48:43.310Z,19.10
2018-06-23T12:51:11.830Z,19.00
2018-06-23T12:53:40.346Z,18.90
2018-06-23T12:56:08.850Z,18.90
2018-06-23T12:58:37.411Z,18.70
2018-06-23T13:01:05.970Z,18.60
2018-06-23T13:03:34.519Z,18.50
2018-06-23T13:06:03.046Z,18.70
2018-06-23T13:08:31.571Z,18.80
2018-06-23T13:11:00.061Z,19.10
2018-06-23T13:13:28.582Z,19.20
2018-06-23T13:15:57.078Z,19.00
2018-06-23T13:18:25.575Z,19.10
2018-06-23T13:20:54.068Z,19.10
2018-06-23T13:23:22.596Z,19.10
2018-06-23T13:25:51.075Z,19.20
2018-06-23T13:28:19.586Z,19.20
2018-06-23T13:30:48.059Z,19.50
2018-06-23T13:33:16.620Z,20.00
2018-06-23T13:35:45.147Z,20.30
2018-06-23T13:38:13.686Z,20.50
2018-06-23T13:40:42.194Z,20.80
2018-06-23T13:43:10.659Z,20.90
2018-06-23T13:45:39.240Z,20.90
2018-06-23T13:48:07.772Z,20.70
2018-06-23T13:50:36.270Z,20.70
2018-06-23T13:53:04.766Z,20.90
2018-06-23T13:55:33.324Z,21.20
2018-06-23T13:58:01.880Z,21.30
2018-06-23T14:00:30.427Z,21.50
2018-06-23T14:02:59.049Z,21.50
2018-06-23T14:05:27.626Z,21.50
2018-06-23T14:07:56.216Z,21.50
2018-06-23T14:10:25.096Z,21.10
2018-06-23T14:12:53.718Z,21.00
2018-06-23T14:15:22.342Z,20.80
2018-06-23T14:17:50.839Z,20.80
2018-06-23T14:20:19.367Z,21.00
2018-06-23T14:22:47.887Z,20.80
2018-06-23T14:25:16.425Z,20.70
2018-06-23T14:27:44.963Z,20.70
2018-06-23T14:30:13.486Z,20.80
2018-06-23T14:32:42.014Z,21.10
2018-06-23T14:35:10.558Z,21.20
2018-06-23T14:37:39.168Z,21.00
2018-06-23T14:40:07.709Z,21.00
2018-06-23T14:42:37.298Z,21.20
2018-06-23T14:45:05.864Z,21.30
2018-06-23T14:47:34.583Z,21.50
2018-06-23T14:50:03.183Z,21.70
2018-06-23T14:52:31.759Z,21.70
2018-06-23T14:55:00.261Z,21.60
2018-06-23T14:57:28.811Z,21.70
2018-06-23T14:59:57.309Z,21.60
2018-06-23T15:02:25.908Z,21.70
2018-06-23T15:04:54.640Z,21.60
2018-06-23T15:07:23.067Z,21.40
2018-06-23T15:10:03.027Z,21.50
2018-06-23T15:12:42.603Z,21.10
2018-06-23T15:15:11.139Z,21.10
2018-06-23T15:17:39.692Z,20.90
2018-06-23T15:20:08.255Z,21.00
2018-06-23T15:22:36.784Z,21.00
2018-06-23T15:27:34.700Z,21.00
2018-06-23T15:30:03.736Z,20.80
2018-06-23T15:32:32.293Z,20.80
2018-06-23T15:35:00.888Z,20.80
2018-06-23T15:37:29.478Z,20.90
2018-06-23T15:39:58.014Z,20.80
2018-06-23T15:42:26.540Z,20.70
2018-06-23T15:44:55.095Z,20.60
2018-06-23T15:47:23.593Z,20.60
2018-06-23T15:49:52.110Z,20.60
2018-06-23T15:52:20.641Z,20.50
2018-06-23T15:54:49.163Z,20.40
2018-06-23T15:57:17.915Z,20.40
2018-06-23T15:59:46.431Z,20.50
2018-06-23T16:02:14.936Z,20.50
2018-06-23T16:04:43.490Z,20.50
2018-06-23T16:07:11.988Z,20.40
2018-06-23T16:09:40.524Z,20.40
2018-06-23T16:12:09.011Z,20.30
2018-06-23T16:14:37.530Z,20.20
2018-06-23T16:17:06.079Z,20.10
2018-06-23T16:19:34.612Z,20.00
2018-06-23T16:22:03.111Z,20.00
2018-06-23T16:24:31.668Z,19.90
2018-06-23T16:27:00.152Z,19.90
2018-06-23T16:29:28.668Z,20.00
2018-06-23T16:31:57.344Z,19.80
2018-06-23T16:34:25.881Z,19.70
2018-06-23T16:36:54.520Z,19.60
2018-06-23T16:39:23.096Z,19.50
2018-06-23T16:41:51.648Z,19.40
2018-06-23T16:44:20.122Z,19.30
2018-06-23T16:46:48.667Z,19.20
2018-06-23T16:49:17.155Z,19.10
2018-06-23T16:51:45.681Z,19.00
2018-06-23T16:54:14.217Z,19.00
2018-06-23T16:56:42.769Z,19.00
2018-06-23T16:59:11.265Z,18.90
2018-06-23T17:01:39.766Z,18.90
2018-06-23T17:04:08.264Z,18.90
2018-06-23T17:06:36.795Z,18.90
2018-06-23T17:09:07.967Z,18.90
2018-06-23T17:11:36.519Z,18.70
2018-06-23T17:14:04.997Z,18.80
2018-06-23T17:16:33.524Z,18.80
2018-06-23T17:19:01.996Z,18.80
2018-06-23T17:21:30.800Z,18.80
2018-06-23T17:23:59.296Z,18.80
2018-06-23T17:26:27.797Z,18.80
2018-06-23T17:28:56.272Z,18.80
2018-06-23T17:31:24.796Z,18.80
2018-06-23T17:33:53.253Z,18.80
2018-06-23T17:36:21.768Z,18.80
2018-06-23T17:38:50.287Z,18.80
2018-06-23T17:41:18.780Z,18.80
2018-06-23T17:43:47.275Z,18.80
2018-06-23T17:46:15.792Z,18.70
2018-06-23T17:48:44.369Z,18.60
2018-06-23T17:51:12.860Z,18.60
2018-06-23T17:53:41.471Z,18.60
2018-06-23T17:56:10.067Z,18.50
2018-06-23T17:58:38.687Z,18.40
2018-06-23T18:01:07.196Z,18.40
2018-06-23T18:03:35.752Z,18.30
2018-06-23T18:06:04.380Z,18.30
2018-06-23T18:08:32.923Z,18.20
2018-06-23T18:11:01.426Z,18.20
2018-06-23T18:13:29.948Z,18.10
2018-06-23T18:15:58.418Z,18.10
2018-06-23T18:18:27.056Z,18.10
2018-06-23T18:20:55.555Z,18.10
2018-06-23T18:23:24.062Z,18.10
2018-06-23T18:25:52.582Z,18.00
2018-06-23T18:28:21.257Z,18.00
2018-06-23T18:30:50.611Z,18.00
2018-06-23T18:33:19.109Z,18.00
2018-06-23T18:35:47.613Z,17.90
2018-06-23T18:38:16.164Z,17.90
2018-06-23T18:40:47.002Z,17.90
2018-06-23T18:43:15.556Z,17.90
2018-06-23T18:45:44.160Z,17.80
2018-06-23T18:48:12.713Z,17.80
2018-06-23T18:50:41.768Z,17.70
2018-06-23T18:53:10.307Z,17.60
2018-06-23T18:55:39.146Z,17.50
2018-06-23T18:58:07.718Z,17.40
2018-06-23T19:00:36.210Z,17.40
2018-06-23T19:03:04.733Z,17.30
2018-06-23T19:05:33.227Z,17.30
2018-06-23T19:10:29.931Z,17.30
2018-06-23T19:12:58.383Z,17.30
2018-06-23T19:15:26.895Z,17.20
2018-06-23T19:17:55.358Z,17.20
2018-06-23T19:20:23.865Z,17.10
2018-06-23T19:22:52.334Z,17.10
2018-06-23T19:25:20.878Z,17.10
2018-06-23T19:27:49.366Z,17.10
2018-06-23T19:30:17.881Z,17.00
2018-06-23T19:32:46.368Z,17.00
2018-06-23T19:35:14.900Z,17.00
2018-06-23T19:37:43.375Z,17.00
2018-06-23T19:40:11.862Z,17.00
2018-06-23T19:42:40.438Z,17.00
2018-06-23T19:45:08.987Z,16.90
2018-06-23T19:47:37.535Z,16.90
2018-06-23T19:50:06.272Z,16.90
2018-06-23T19:52:35.148Z,16.90
2018-06-23T19:55:03.674Z,16.80
2018-06-23T19:57:32.191Z,16.80
2018-06-23T20:00:00.685Z,16.80
2018-06-23T20:02:29.195Z,16.70
2018-06-23T20:04:57.697Z,16.70
2018-06-23T20:07:26.242Z,16.70
2018-06-23T20:09:54.738Z,16.70
2018-06-23T20:12:23.256Z,16.70
2018-06-23T20:14:51.748Z,16.70
2018-06-23T20:17:20.270Z,16.70
2018-06-23T20:19:48.828Z,16.60
2018-06-23T20:22:17.357Z,16.60
2018-06-23T20:24:45.827Z,16.50
2018-06-23T20:27:14.331Z,16.60
2018-06-23T20:32:11.027Z,16.50
2018-06-23T20:34:39.519Z,16.50
2018-06-23T20:37:08.023Z,16.50
2018-06-23T20:39:36.479Z,16.50
2018-06-23T20:42:05.028Z,16.40
2018-06-23T20:44:33.511Z,16.40
2018-06-23T20:47:02.067Z,16.50
2018-06-23T20:49:30.619Z,16.40
2018-06-23T20:51:59.183Z,16.40
2018-06-23T20:54:27.707Z,16.40
2018-06-23T20:56:56.223Z,16.40
2018-06-23T20:59:24.773Z,16.40
2018-06-23T21:01:53.257Z,16.40
2018-06-23T21:04:21.775Z,16.30
2018-06-23T21:06:50.260Z,16.30
2018-06-23T21:09:18.763Z,16.30
2018-06-23T21:11:47.275Z,16.30
2018-06-23T21:14:15.794Z,16.30
2018-06-23T21:16:44.303Z,16.20
2018-06-23T21:19:12.827Z,16.20
2018-06-23T21:21:41.286Z,16.20
2018-06-23T21:24:09.822Z,16.20
2018-06-23T21:26:38.333Z,16.20
2018-06-23T21:29:06.870Z,16.20
2018-06-23T21:31:35.341Z,16.20
2018-06-23T21:34:03.863Z,16.20
2018-06-23T21:36:32.395Z,16.20
2018-06-23T21:39:00.922Z,16.20
2018-06-23T21:41:29.467Z,16.20
2018-06-23T21:43:58.040Z,16.10
2018-06-23T21:46:26.539Z,16.10
2018-06-23T21:48:55.147Z,16.10
2018-06-23T21:51:23.627Z,16.10
2018-06-23T21:53:52.199Z,16.10
2018-06-23T21:56:20.694Z,16.00
2018-06-23T21:58:49.223Z,16.00
2018-06-23T22:01:17.713Z,15.90
2018-06-23T22:03:46.241Z,15.90
2018-06-23T22:06:14.759Z,15.90
2018-06-23T22:08:43.280Z,15.90
2018-06-23T22:11:11.779Z,15.90
2018-06-23T22:13:40.327Z,15.90
2018-06-23T22:16:08.832Z,15.80
2018-06-23T22:18:37.344Z,15.80
2018-06-23T22:21:05.893Z,15.80
2018-06-23T22:23:34.400Z,15.80
2018-06-23T22:26:02.893Z,15.70
2018-06-23T22:28:31.427Z,15.70
2018-06-23T22:30:59.939Z,15.70
2018-06-23T22:33:28.431Z,15.60
2018-06-23T22:35:57.051Z,15.60
2018-06-23T22:38:25.544Z,15.60
2018-06-23T22:40:54.079Z,15.60
2018-06-23T22:43:22.578Z,15.50
2018-06-23T22:45:51.143Z,15.60
2018-06-23T22:50:47.947Z,15.50
2018-06-23T22:53:16.454Z,15.40
2018-06-23T22:55:44.991Z,15.40
2018-06-23T22:58:13.465Z,15.40
2018-06-23T23:00:41.968Z,15.40
2018-06-23T23:03:10.488Z,15.40
2018-06-23T23:05:39.003Z,15.40
2018-06-23T23:08:07.550Z,15.30
2018-06-23T23:10:36.146Z,15.30
2018-06-23T23:13:04.654Z,15.20
2018-06-23T23:15:33.170Z,15.10
2018-06-23T23:18:01.697Z,15.10
2018-06-23T23:20:30.214Z,15.10
2018-06-23T23:22:58.722Z,15.00
2018-06-23T23:25:27.241Z,15.00
2018-06-23T23:27:55.745Z,14.90
2018-06-23T23:30:24.275Z,14.90
2018-06-23T23:32:52.821Z,14.80
2018-06-23T23:35:21.307Z,14.80
2018-06-23T23:37:49.835Z,14.80
2018-06-23T23:40:18.361Z,14.80
2018-06-23T23:42:46.882Z,14.80
2018-06-23T23:45:15.411Z,14.80
2018-06-23T23:47:43.982Z,14.80
2018-06-23T23:50:12.559Z,14.70
2018-06-23T23:52:41.059Z,14.70
2018-06-23T23:55:09.526Z,14.70
2018-06-23T23:57:38.112Z,14.80
